Time;durP1;ratioP1;P1;durP2;ratioP2;P2;SDS_P1;SDS_P2;PMS_P1;PMS_P2;Temp;Humidity;BMP_temperature;BMP_pressure;BME280_temperature;BME280_humidity;BME280_pressure;Samples;Min_cycle;Max_cycle;Signal;HPM_P1;HPM_P2
2021/01/10 00:01:20;;;;;;;117.10;49.13;;;;;;;-0.58;100.00;101104.84;5093366;28;20024;-69
2021/01/10 00:03:46;;;;;;;120.63;49.92;;;;;;;-0.54;100.00;101103.00;5093608;28;20055;-69
2021/01/10 00:06:11;;;;;;;116.03;48.85;;;;;;;-0.48;100.00;101108.94;5093291;28;20075;-69
2021/01/10 00:08:37;;;;;;;119.28;49.05;;;;;;;-0.44;100.00;101107.06;5093489;28;20028;-69
2021/01/10 00:11:03;;;;;;;129.43;54.50;;;;;;;-0.53;100.00;101100.31;5093348;28;20032;-70
2021/01/10 00:13:30;;;;;;;125.25;54.08;;;;;;;-0.46;100.00;101112.38;5093274;28;20073;-69
2021/01/10 00:15:55;;;;;;;121.32;46.85;;;;;;;-0.37;100.00;101116.50;5093304;28;20099;-69
2021/01/10 00:18:21;;;;;;;98.28;43.17;;;;;;;-0.38;100.00;101123.53;5092906;28;20119;-69
2021/01/10 00:20:46;;;;;;;104.78;43.47;;;;;;;-0.39;100.00;101123.59;5091595;28;20775;-69
2021/01/10 00:23:12;;;;;;;88.32;38.13;;;;;;;-0.41;100.00;101122.78;5091034;28;20024;-69
2021/01/10 00:25:37;;;;;;;83.55;39.47;;;;;;;-0.50;100.00;101113.41;5092289;28;20518;-70
2021/01/10 00:28:03;;;;;;;84.60;37.42;;;;;;;-0.51;100.00;101116.09;5092020;28;20529;-69
2021/01/10 00:30:28;;;;;;;88.40;39.67;;;;;;;-0.61;100.00;101106.72;5092012;28;20525;-69
2021/01/10 00:32:56;;;;;;;87.15;36.60;;;;;;;-0.50;100.00;101128.34;5092886;28;20089;-69
2021/01/10 00:35:23;;;;;;;74.38;35.15;;;;;;;-0.55;100.00;101133.75;5092407;28;20051;-69
2021/01/10 00:37:51;;;;;;;74.28;34.80;;;;;;;-0.56;100.00;101137.28;5092364;28;20039;-69
2021/01/10 00:40:18;;;;;;;72.35;35.78;;;;;;;-0.61;100.00;101140.97;5092308;28;20102;-69
2021/01/10 00:42:46;;;;;;;66.30;33.00;;;;;;;-0.65;100.00;101141.94;5092063;28;20070;-69
2021/01/10 00:45:12;;;;;;;65.28;31.27;;;;;;;-0.68;100.00;101142.06;5092195;28;20058;-69
2021/01/10 00:47:38;;;;;;;65.25;30.63;;;;;;;-0.71;100.00;101139.53;5092547;28;20028;-69
2021/01/10 00:50:07;;;;;;;64.28;29.73;;;;;;;-0.71;100.00;101143.00;5092299;28;20106;-69
2021/01/10 00:52:34;;;;;;;60.58;29.08;;;;;;;-0.91;100.00;101112.88;5091882;28;20024;-69
2021/01/10 00:54:59;;;;;;;67.43;30.30;;;;;;;-0.83;99.87;101130.22;5091875;28;20528;-69
2021/01/10 00:57:25;;;;;;;63.63;27.75;;;;;;;-0.77;100.00;101147.59;5091691;28;20056;-69
2021/01/10 00:59:50;;;;;;;67.90;30.63;;;;;;;-0.93;100.00;101128.72;5092329;28;20059;-69
2021/01/10 01:02:16;;;;;;;62.60;30.00;;;;;;;-0.84;100.00;101149.53;5091196;28;20024;-69
2021/01/10 01:04:42;;;;;;;63.25;29.38;;;;;;;-0.86;100.00;101156.63;5091991;28;20035;-69
2021/01/10 01:07:07;;;;;;;62.35;29.17;;;;;;;-0.88;100.00;101168.94;5091445;28;20040;-69
2021/01/10 01:09:34;;;;;;;53.92;26.23;;;;;;;-0.90;100.00;101170.75;5090179;28;20514;-69
2021/01/10 01:12:00;;;;;;;55.78;26.77;;;;;;;-0.99;100.00;101157.00;5091543;28;20445;-70
2021/01/10 01:14:26;;;;;;;65.70;29.10;;;;;;;-0.93;100.00;101170.81;5091426;28;20020;-69
2021/01/10 01:16:52;;;;;;;55.00;26.15;;;;;;;-1.03;100.00;101160.63;5092253;28;20024;-69
2021/01/10 01:19:17;;;;;;;61.92;27.08;;;;;;;-1.07;100.00;101151.94;5092192;28;20396;-69
2021/01/10 01:21:43;;;;;;;66.72;27.20;;;;;;;-0.93;100.00;101170.00;5091411;28;20039;-70
2021/01/10 01:24:08;;;;;;;58.95;27.17;;;;;;;-0.95;100.00;101170.03;5090028;28;20364;-69
2021/01/10 01:26:34;;;;;;;59.08;26.83;;;;;;;-0.97;100.00;101158.66;5091115;28;20480;-69
2021/01/10 01:29:00;;;;;;;56.03;26.08;;;;;;;-0.95;100.00;101159.50;5091095;28;20498;-69
2021/01/10 01:31:27;;;;;;;64.93;27.08;;;;;;;-0.92;100.00;101163.81;5091685;28;20666;-69
2021/01/10 01:33:54;;;;;;;63.05;25.63;;;;;;;-0.91;100.00;101155.88;5091708;28;20103;-69
2021/01/10 01:36:28;;;;;;;71.50;27.27;;;;;;;-0.93;100.00;101147.13;5091951;28;20048;-70
2021/01/10 01:38:59;;;;;;;66.97;26.88;;;;;;;-0.95;100.00;101137.56;5091723;28;20162;-69
2021/01/10 01:41:25;;;;;;;55.63;23.80;;;;;;;-0.90;100.00;101139.16;5091539;28;20052;-69
2021/01/10 01:43:51;;;;;;;66.28;26.70;;;;;;;-0.88;100.00;101140.00;5091857;28;20408;-69
2021/01/10 01:46:28;;;;;;;60.60;25.38;;;;;;;-0.85;100.00;101142.53;5091643;28;20530;-69
2021/01/10 01:48:54;;;;;;;65.55;25.33;;;;;;;-0.85;100.00;101141.66;5091696;28;20012;-69
2021/01/10 01:51:20;;;;;;;59.90;24.08;;;;;;;-0.82;100.00;101145.09;5091288;28;20028;-69
2021/01/10 01:53:49;;;;;;;60.15;26.80;;;;;;;-0.81;100.00;101136.28;5090827;28;20065;-69
2021/01/10 01:56:15;;;;;;;70.45;26.85;;;;;;;-0.91;100.00;101118.13;5090613;28;20173;-69
2021/01/10 01:58:56;;;;;;;73.05;25.70;;;;;;;-0.78;100.00;101141.44;5090868;28;20064;-70
2021/01/10 02:01:22;;;;;;;71.65;26.65;;;;;;;-0.90;100.00;101118.09;5091597;28;20024;-69
2021/01/10 02:03:48;;;;;;;71.72;26.45;;;;;;;-0.77;100.00;101132.63;5072953;28;20027;-69
2021/01/10 02:06:18;;;;;;;63.50;25.25;;;;;;;-0.71;100.00;101142.16;5090918;28;20452;-69
2021/01/10 02:08:45;;;;;;;70.82;27.63;;;;;;;-0.79;100.00;101123.94;5090829;28;20028;-69
2021/01/10 02:11:12;;;;;;;62.60;24.17;;;;;;;-0.73;100.00;101130.78;5091061;28;20016;-69
2021/01/10 02:13:39;;;;;;;65.82;25.98;;;;;;;-0.75;100.00;101124.69;5089768;28;20123;-69
2021/01/10 02:16:06;;;;;;;63.72;25.48;;;;;;;-0.72;100.00;101127.22;5090845;28;20384;-69
2021/01/10 02:18:34;;;;;;;71.50;25.27;;;;;;;-0.79;100.00;101112.53;5091091;28;20102;-69
2021/01/10 02:21:06;;;;;;;62.03;24.17;;;;;;;-0.95;100.00;101088.44;5091010;28;20110;-69
2021/01/10 02:23:32;;;;;;;62.10;25.80;;;;;;;-0.84;100.00;101112.66;5090693;28;20035;-69
2021/01/10 02:25:59;;;;;;;69.90;26.48;;;;;;;-0.85;100.00;101116.22;5090685;28;20024;-69
2021/01/10 02:28:30;;;;;;;64.03;25.77;;;;;;;-0.82;100.00;101124.03;5090679;28;20036;-69
2021/01/10 02:30:57;;;;;;;67.22;24.95;;;;;;;-0.70;100.00;101143.88;5091299;28;20122;-69
2021/01/10 02:33:44;;;;;;;70.80;26.30;;;;;;;-0.69;100.00;101142.94;5091360;28;20028;-69
2021/01/10 02:36:30;;;;;;;66.68;24.20;;;;;;;-0.70;100.00;101136.84;5091569;28;20032;-69
2021/01/10 02:39:27;;;;;;;68.38;25.88;;;;;;;-0.66;100.00;101142.88;5091115;28;20051;-69
2021/01/10 02:42:08;;;;;;;72.95;26.50;;;;;;;-0.65;100.00;101137.56;5091267;28;20023;-69
2021/01/10 02:44:37;;;;;;;68.50;25.92;;;;;;;-0.59;100.00;101144.41;5091279;28;20120;-69
2021/01/10 02:47:05;;;;;;;67.13;25.15;;;;;;;-0.57;100.00;101142.59;5091051;28;20055;-69
2021/01/10 02:49:30;;;;;;;68.22;26.35;;;;;;;-0.72;100.00;101121.97;5089751;28;20120;-69
2021/01/10 02:51:56;;;;;;;65.85;25.17;;;;;;;-0.69;100.00;101116.63;5091052;28;20472;-69
2021/01/10 02:54:21;;;;;;;74.88;26.25;;;;;;;-0.66;100.00;101122.66;5092841;28;20165;-69
2021/01/10 02:57:22;;;;;;;76.28;26.55;;;;;;;-0.82;100.00;101087.16;5094421;28;20036;-69
2021/01/10 02:59:50;;;;;;;70.75;26.20;;;;;;;-0.48;100.00;101140.53;5092245;28;20047;-69
2021/01/10 03:02:17;;;;;;;79.32;26.38;;;;;;;-0.57;100.00;101121.53;5093580;28;20079;-69
2021/01/10 03:04:43;;;;;;;78.30;26.13;;;;;;;-0.56;100.00;101107.44;5088033;28;20055;-69
2021/01/10 03:07:10;;;;;;;81.72;28.90;;;;;;;-0.41;100.00;101133.34;5081241;28;20085;-69
2021/01/10 03:09:36;;;;;;;71.85;27.02;;;;;;;-0.41;100.00;101125.44;5083244;28;20020;-69
2021/01/10 03:12:16;;;;;;;73.95;27.75;;;;;;;-0.35;100.00;101125.25;5084638;28;20095;-69
2021/01/10 03:14:45;;;;;;;73.43;23.63;;;;;;;-0.45;100.00;101106.19;5084420;28;20031;-69
2021/01/10 03:17:42;;;;;;;82.53;26.75;;;;;;;-0.28;100.00;101122.38;5081407;28;20040;-69
2021/01/10 03:20:20;;;;;;;81.20;27.60;;;;;;;-0.28;100.00;101121.50;5082367;28;20091;-70
2021/01/10 03:22:47;;;;;;;74.53;26.23;;;;;;;-0.27;100.00;101116.19;5082254;28;20067;-69
2021/01/10 03:25:17;;;;;;;75.57;27.42;;;;;;;-0.27;100.00;101120.59;5083485;28;20031;-69
2021/01/10 03:27:43;;;;;;;80.40;26.65;;;;;;;-0.22;100.00;101137.13;5085995;28;20047;-69
2021/01/10 03:30:11;;;;;;;73.00;25.15;;;;;;;-0.20;100.00;101127.38;5081685;28;20032;-69
2021/01/10 03:32:37;;;;;;;68.55;26.50;;;;;;;-0.19;100.00;101129.97;5082449;28;20059;-69
2021/01/10 03:35:07;;;;;;;65.35;24.88;;;;;;;-0.26;100.00;101112.63;5082902;28;20039;-69
2021/01/10 03:37:33;;;;;;;73.45;29.02;;;;;;;-0.30;100.00;101103.09;5083298;28;20043;-69
2021/01/10 03:39:59;;;;;;;68.53;25.75;;;;;;;-0.18;100.00;101121.19;5083401;28;20056;-69
2021/01/10 03:42:25;;;;;;;63.80;24.48;;;;;;;-0.10;100.00;101137.59;5082547;28;20059;-69
2021/01/10 03:44:50;;;;;;;67.70;25.63;;;;;;;-0.16;100.00;101134.31;5082265;28;20042;-69
2021/01/10 03:47:16;;;;;;;70.25;26.25;;;;;;;-0.15;100.00;101129.00;5083300;28;20039;-69
2021/01/10 03:49:41;;;;;;;68.10;25.13;;;;;;;-0.09;100.00;101141.97;5082965;28;20025;-69
2021/01/10 03:52:07;;;;;;;68.07;24.33;;;;;;;-0.11;100.00;101132.38;5082061;28;20036;-69
2021/01/10 03:54:32;;;;;;;62.53;24.75;;;;;;;-0.10;100.00;101132.34;5081000;28;20036;-69
2021/01/10 03:56:58;;;;;;;71.53;25.90;;;;;;;-0.07;100.00;101145.41;5081083;28;20028;-69
2021/01/10 03:59:23;;;;;;;67.07;24.35;;;;;;;-0.13;100.00;101135.06;5082137;28;20073;-69
2021/01/10 04:01:49;;;;;;;66.95;25.08;;;;;;;-0.02;100.00;101146.16;5084434;28;20433;-69
2021/01/10 04:04:14;;;;;;;65.20;25.05;;;;;;;0.00;100.00;101140.84;5082311;28;20036;-69
2021/01/10 04:06:40;;;;;;;67.50;24.35;;;;;;;-0.05;100.00;101140.09;5079603;28;20049;-69
2021/01/10 04:09:05;;;;;;;67.82;25.13;;;;;;;-0.14;100.00;101117.53;5082454;28;20460;-69
2021/01/10 04:11:31;;;;;;;62.90;24.60;;;;;;;0.03;100.00;101147.78;5081183;28;20142;-69
2021/01/10 04:13:57;;;;;;;73.90;26.60;;;;;;;-0.03;100.00;101133.03;5080953;28;20085;-69
2021/01/10 04:16:22;;;;;;;62.90;24.95;;;;;;;0.03;100.00;101147.78;5081289;28;20034;-69
2021/01/10 04:18:48;;;;;;;56.75;23.20;;;;;;;-0.03;100.00;101146.19;5080055;28;20044;-69
2021/01/10 04:21:13;;;;;;;60.72;23.10;;;;;;;0.03;100.00;101162.66;5077915;28;20081;-69
2021/01/10 04:23:39;;;;;;;58.30;23.45;;;;;;;-0.08;100.00;101151.63;5081370;28;20390;-69
2021/01/10 04:26:06;;;;;;;63.10;22.95;;;;;;;0.01;100.00;101158.38;5077791;28;20166;-69
2021/01/10 04:28:31;;;;;;;55.47;22.80;;;;;;;0.03;100.00;101163.59;5081341;28;20161;-69
2021/01/10 04:30:59;;;;;;;63.10;22.10;;;;;;;-0.06;100.00;101141.03;5084144;28;20115;-69
2021/01/10 04:33:25;;;;;;;61.88;23.95;;;;;;;0.01;100.00;101158.38;5081757;28;20039;-69
2021/01/10 04:35:51;;;;;;;56.88;22.73;;;;;;;0.00;100.00;101151.38;5080916;28;20021;-69
2021/01/10 04:38:17;;;;;;;56.42;23.13;;;;;;;0.00;100.00;101144.31;5085361;28;20028;-69
2021/01/10 04:40:43;;;;;;;69.00;24.13;;;;;;;0.03;100.00;101155.69;5091703;28;20028;-69
2021/01/10 04:43:08;;;;;;;55.83;22.27;;;;;;;0.00;100.00;101157.50;5090864;28;20024;-69
2021/01/10 04:45:35;;;;;;;57.28;22.88;;;;;;;-0.06;100.00;101144.50;5091939;28;20024;-69
2021/01/10 04:48:02;;;;;;;61.78;24.08;;;;;;;0.00;100.00;101149.59;5092209;28;20034;-69
2021/01/10 04:50:30;;;;;;;64.20;23.60;;;;;;;0.00;100.00;101154.00;5091923;28;20102;-69
2021/01/10 04:52:58;;;;;;;59.58;21.52;;;;;;;-0.07;100.00;101139.28;5091887;28;20127;-69
2021/01/10 04:55:24;;;;;;;58.05;22.20;;;;;;;-0.08;100.00;101137.56;5091649;28;20097;-69
2021/01/10 04:58:01;;;;;;;59.63;23.77;;;;;;;0.03;100.00;101145.97;5092109;28;20043;-69
2021/01/10 05:00:29;;;;;;;60.20;22.88;;;;;;;0.04;100.00;101148.56;5091571;28;20020;-69
2021/01/10 05:03:04;;;;;;;65.38;24.05;;;;;;;-0.01;100.00;101139.09;5091468;28;20081;-69
2021/01/10 05:05:31;;;;;;;56.33;21.92;;;;;;;0.03;100.00;101145.97;5091583;28;20062;-69
2021/01/10 05:07:57;;;;;;;59.33;22.65;;;;;;;0.05;100.00;101144.16;5091527;28;20024;-69
2021/01/10 05:10:23;;;;;;;60.80;22.05;;;;;;;0.03;100.00;101145.97;5091653;28;20388;-69
2021/01/10 05:12:48;;;;;;;61.90;23.45;;;;;;;-0.01;100.00;101134.69;5091894;28;20032;-69
2021/01/10 05:15:14;;;;;;;53.30;21.92;;;;;;;-0.04;100.00;101129.50;5091168;28;20027;-70
2021/01/10 05:17:39;;;;;;;58.53;22.27;;;;;;;0.05;100.00;101149.44;5090199;28;20024;-69
2021/01/10 05:20:08;;;;;;;54.28;22.63;;;;;;;0.03;100.00;101140.69;5090142;28;20166;-69
2021/01/10 05:22:38;;;;;;;54.60;20.30;;;;;;;0.05;100.00;101146.81;5089820;28;20127;-69
2021/01/10 05:25:13;;;;;;;57.83;22.67;;;;;;;0.05;100.00;101152.06;5089934;28;20128;-69
2021/01/10 05:27:39;;;;;;;56.47;23.50;;;;;;;0.04;100.00;101148.56;5091504;28;20122;-69
2021/01/10 05:30:05;;;;;;;54.80;22.52;;;;;;;0.01;100.00;101147.81;5089819;28;20103;-69
2021/01/10 05:32:31;;;;;;;56.13;21.88;;;;;;;0.04;100.00;101155.63;5091165;28;20024;-70
2021/01/10 05:35:00;;;;;;;53.53;21.27;;;;;;;-0.04;100.00;101150.59;5091274;28;20562;-69
2021/01/10 05:37:26;;;;;;;52.95;20.40;;;;;;;0.00;100.00;101159.28;5090510;28;20115;-69
2021/01/10 05:39:52;;;;;;;54.30;21.92;;;;;;;-0.03;100.00;101162.84;5091833;28;20035;-69
2021/01/10 05:42:19;;;;;;;57.47;22.45;;;;;;;-0.06;100.00;101151.56;5091830;28;20031;-69
2021/01/10 05:44:44;;;;;;;57.55;22.50;;;;;;;-0.05;100.00;101159.44;5091675;28;20632;-69
2021/01/10 05:47:12;;;;;;;56.28;21.98;;;;;;;-0.05;100.00;101158.56;5091825;28;20020;-69
2021/01/10 05:49:46;;;;;;;54.60;21.42;;;;;;;-0.03;100.00;101170.78;5091401;28;20059;-69
2021/01/10 05:52:12;;;;;;;53.78;21.17;;;;;;;-0.19;100.00;101147.59;5091142;28;20468;-70
2021/01/10 05:54:41;;;;;;;60.08;23.13;;;;;;;-0.11;100.00;101170.16;5091109;28;20056;-69
2021/01/10 05:57:09;;;;;;;53.60;21.65;;;;;;;-0.10;100.00;101189.44;5083090;28;20042;-69
2021/01/10 05:59:37;;;;;;;56.92;22.60;;;;;;;-0.04;100.00;101199.81;5090787;28;20402;-69
2021/01/10 06:02:05;;;;;;;54.00;21.17;;;;;;;-0.14;100.00;101188.72;5091065;28;20028;-70
2021/01/10 06:04:31;;;;;;;54.47;22.63;;;;;;;-0.10;100.00;101194.72;5091278;28;20028;-69
2021/01/10 06:06:57;;;;;;;49.60;20.83;;;;;;;-0.04;100.00;101203.31;5090004;28;20035;-70
2021/01/10 06:09:24;;;;;;;56.53;21.35;;;;;;;0.00;100.00;101204.13;5091401;28;20016;-69
2021/01/10 06:11:49;;;;;;;55.17;22.67;;;;;;;-0.11;100.00;101185.97;5091357;28;20024;-69
2021/01/10 06:14:23;;;;;;;52.58;21.25;;;;;;;0.00;100.00;101212.03;5091019;28;20042;-69
2021/01/10 06:16:55;;;;;;;60.35;23.38;;;;;;;0.02;100.00;101212.81;5091392;28;20020;-69
2021/01/10 06:19:26;;;;;;;58.78;24.00;;;;;;;-0.01;100.00;101212.91;5091384;28;20525;-69
2021/01/10 06:21:55;;;;;;;55.15;22.85;;;;;;;-0.03;100.00;101206.84;5081058;28;20121;-70
2021/01/10 06:24:23;;;;;;;60.85;23.92;;;;;;;-0.15;100.00;101181.72;5091302;28;20031;-69
2021/01/10 06:27:02;;;;;;;71.15;25.20;;;;;;;-0.04;100.00;101207.72;5090496;28;20035;-70
2021/01/10 06:29:35;;;;;;;60.10;24.27;;;;;;;-0.17;100.00;101185.28;5094887;28;20038;-69
2021/01/10 06:32:09;;;;;;;63.42;24.40;;;;;;;-0.21;100.00;101176.63;5093803;28;20027;-69
2021/01/10 06:34:38;;;;;;;61.20;23.13;;;;;;;0.00;100.00;101204.13;5094663;28;20024;-69
2021/01/10 06:37:07;;;;;;;61.90;25.23;;;;;;;-0.11;100.00;101185.09;5095174;28;20333;-69
2021/01/10 06:39:41;;;;;;;64.60;24.38;;;;;;;-0.06;100.00;101191.13;5094957;28;20062;-69
2021/01/10 06:42:09;;;;;;;99.13;38.00;;;;;;;0.00;100.00;101204.94;5095166;28;20020;-69
2021/01/10 06:44:37;;;;;;;75.90;30.95;;;;;;;-0.03;100.00;101199.78;5093395;28;20460;-69
2021/01/10 06:47:04;;;;;;;68.85;27.98;;;;;;;-0.02;100.00;101195.38;5089167;28;20524;-69
2021/01/10 06:49:30;;;;;;;70.60;26.10;;;;;;;-0.04;100.00;101203.31;5092831;28;20035;-70
2021/01/10 06:51:59;;;;;;;65.53;25.55;;;;;;;-0.08;100.00;101187.66;5092818;28;20027;-69
2021/01/10 06:54:26;;;;;;;63.70;25.35;;;;;;;-0.14;100.00;101178.16;5090723;28;20052;-70
2021/01/10 06:56:53;;;;;;;66.63;26.75;;;;;;;0.00;100.00;101214.66;5093697;28;20019;-70
2021/01/10 06:59:25;;;;;;;63.72;25.25;;;;;;;-0.08;100.00;101201.69;5092866;28;20381;-70
2021/01/10 07:01:56;;;;;;;72.30;26.30;;;;;;;0.00;100.00;101204.94;5093295;28;20020;-70
2021/01/10 07:04:23;;;;;;;67.15;26.65;;;;;;;0.06;100.00;101211.81;5092846;28;20032;-70
2021/01/10 07:06:54;;;;;;;68.80;26.17;;;;;;;-0.03;100.00;101201.56;5093071;28;20032;-70
2021/01/10 07:09:21;;;;;;;70.63;25.98;;;;;;;0.03;100.00;101207.50;5092440;28;20047;-69
2021/01/10 07:11:49;;;;;;;67.43;25.30;;;;;;;0.07;100.00;101220.59;5091662;28;20028;-70
2021/01/10 07:14:17;;;;;;;74.82;26.20;;;;;;;0.07;100.00;101213.56;5092648;28;20130;-69
2021/01/10 07:16:45;;;;;;;76.40;27.75;;;;;;;0.06;100.00;101224.16;5092620;28;20095;-69
2021/01/10 07:19:12;;;;;;;65.72;25.17;;;;;;;0.08;100.00;101233.72;5072816;28;20051;-70
2021/01/10 07:21:49;;;;;;;78.38;27.55;;;;;;;0.07;100.00;101239.06;5071868;28;20035;-70
2021/01/10 07:24:20;;;;;;;79.88;28.55;;;;;;;0.10;100.00;101247.75;5072695;28;20029;-70
2021/01/10 07:26:50;;;;;;;76.55;28.15;;;;;;;0.09;100.00;101235.44;5072675;28;20032;-69
2021/01/10 07:29:31;;;;;;;85.35;30.13;;;;;;;0.10;100.00;101234.56;5072235;28;20036;-70
2021/01/10 07:32:06;;;;;;;72.70;28.75;;;;;;;0.11;100.00;101231.00;5072421;28;20032;-70
2021/01/10 07:34:37;;;;;;;75.78;28.58;;;;;;;0.11;100.00;101238.91;5071679;28;20116;-69
2021/01/10 07:37:06;;;;;;;77.75;28.42;;;;;;;0.09;100.00;101248.63;5072598;28;20029;-70
2021/01/10 07:39:36;;;;;;;78.55;28.83;;;;;;;0.00;100.00;101233.13;5071312;28;20115;-69
2021/01/10 07:42:11;;;;;;;87.80;31.48;;;;;;;0.11;100.00;101241.56;5070741;28;20073;-69
2021/01/10 07:44:45;;;;;;;73.82;28.70;;;;;;;0.09;100.00;101237.25;5070901;28;20484;-69
2021/01/10 07:47:11;;;;;;;80.38;28.88;;;;;;;-0.09;100.00;101205.22;5075045;28;20028;-69
2021/01/10 07:49:53;;;;;;;85.40;30.45;;;;;;;0.09;100.00;101238.09;5091686;28;20410;-69
2021/01/10 07:52:48;;;;;;;80.75;28.63;;;;;;;0.10;100.00;101229.28;5092090;28;20044;-68
2021/01/10 07:55:23;;;;;;;83.20;29.80;;;;;;;0.16;100.00;101233.50;5092145;28;20044;-69
2021/01/10 07:58:01;;;;;;;86.50;29.42;;;;;;;0.10;100.00;101215.22;5092255;28;20060;-69
2021/01/10 08:00:30;;;;;;;94.18;30.40;;;;;;;0.18;100.00;101223.75;5093219;28;20032;-70
2021/01/10 08:03:08;;;;;;;79.05;28.77;;;;;;;0.19;100.00;101228.13;5091810;28;20024;-70
2021/01/10 08:05:41;;;;;;;82.43;28.08;;;;;;;0.14;100.00;101215.09;5087361;28;20051;-70
2021/01/10 08:08:15;;;;;;;84.40;29.50;;;;;;;0.21;100.00;101223.66;5071787;28;20089;-69
2021/01/10 08:10:43;;;;;;;96.32;31.17;;;;;;;0.19;100.00;101218.44;5078881;28;20071;-69
2021/01/10 08:13:41;;;;;;;87.20;30.98;;;;;;;0.15;100.00;101219.44;5091695;28;20514;-69
2021/01/10 08:16:09;;;;;;;81.10;29.58;;;;;;;0.07;100.00;101210.03;5091522;28;20094;-70
2021/01/10 08:18:40;;;;;;;78.63;29.40;;;;;;;0.14;100.00;101230.91;5090973;28;20043;-69
2021/01/10 08:21:11;;;;;;;90.15;29.50;;;;;;;0.10;100.00;101229.28;5091335;28;20035;-69
2021/01/10 08:23:37;;;;;;;76.95;29.92;;;;;;;-0.04;100.00;101207.72;5090854;28;20028;-69
2021/01/10 08:26:15;;;;;;;86.28;29.02;;;;;;;0.05;100.00;101233.81;5091336;28;20040;-69
2021/01/10 08:28:54;;;;;;;75.30;27.50;;;;;;;0.11;100.00;101254.72;5090394;28;20060;-69
2021/01/10 08:31:23;;;;;;;81.35;29.88;;;;;;;-0.01;100.00;101249.81;5090231;28;20039;-69
2021/01/10 08:34:02;;;;;;;84.82;30.13;;;;;;;-0.04;100.00;101247.28;5091418;28;20074;-70
2021/01/10 08:36:28;;;;;;;71.07;27.08;;;;;;;-0.05;100.00;101242.91;5090675;28;20052;-69
2021/01/10 08:39:14;;;;;;;80.03;27.60;;;;;;;-0.05;100.00;101253.47;5091324;28;20506;-69
2021/01/10 08:41:45;;;;;;;89.03;30.63;;;;;;;0.00;100.00;101262.13;5090374;28;20388;-69
2021/01/10 08:44:13;;;;;;;74.10;27.08;;;;;;;0.01;100.00;101266.47;5090867;28;20028;-69
2021/01/10 08:46:42;;;;;;;87.43;28.65;;;;;;;0.03;100.00;101269.91;5090056;28;20108;-69
2021/01/10 08:49:07;;;;;;;75.75;25.27;;;;;;;0.03;100.00;101279.59;5090764;28;20024;-69
2021/01/10 08:51:44;;;;;;;82.28;27.10;;;;;;;-0.04;100.00;101281.53;5089513;28;20537;-69
2021/01/10 08:54:10;;;;;;;89.07;30.27;;;;;;;0.06;100.00;101287.44;5091199;28;20040;-69
2021/01/10 08:56:37;;;;;;;83.13;28.88;;;;;;;0.00;100.00;101286.69;5089980;28;20052;-69
2021/01/10 08:59:03;;;;;;;81.57;27.95;;;;;;;0.01;100.00;101284.94;5089832;28;20032;-68
2021/01/10 09:01:29;;;;;;;93.28;31.55;;;;;;;-0.09;100.00;101276.41;5088444;28;20032;-69
2021/01/10 09:03:59;;;;;;;88.22;31.40;;;;;;;0.02;100.00;101302.47;5090961;28;20016;-69
2021/01/10 09:06:45;;;;;;;82.55;28.83;;;;;;;-0.04;100.00;101286.81;5090159;28;20044;-69
2021/01/10 09:09:39;;;;;;;89.60;30.67;;;;;;;0.11;100.00;101298.69;5089439;28;20044;-69
2021/01/10 09:12:28;;;;;;;82.70;26.30;;;;;;;0.04;100.00;101300.66;5090376;28;20067;-69
2021/01/10 09:15:14;;;;;;;78.85;26.75;;;;;;;-0.05;100.00;101290.38;5089091;28;20024;-68
2021/01/10 09:17:49;;;;;;;72.88;25.05;;;;;;;-0.07;100.00;101282.50;5082133;28;20040;-69
2021/01/10 09:20:18;;;;;;;80.45;27.15;;;;;;;-0.02;100.00;101306.09;5069803;28;20021;-69
2021/01/10 09:22:44;;;;;;;77.15;26.65;;;;;;;0.03;100.00;101306.81;5068438;28;20033;-69
2021/01/10 09:25:14;;;;;;;72.93;25.92;;;;;;;0.00;100.00;101306.94;5070210;28;20146;-69
2021/01/10 09:28:06;;;;;;;72.32;27.77;;;;;;;-0.04;100.00;101297.38;5069389;28;20048;-70
2021/01/10 09:30:32;;;;;;;70.63;25.92;;;;;;;-0.01;100.00;101292.88;5068891;28;20575;-70
2021/01/10 09:32:58;;;;;;;78.93;25.17;;;;;;;-0.02;100.00;101285.00;5070221;28;20028;-70
2021/01/10 09:35:24;;;;;;;78.60;28.08;;;;;;;-0.07;100.00;101277.25;5069384;28;20020;-70
2021/01/10 09:37:50;;;;;;;76.20;26.45;;;;;;;-0.19;100.00;101248.59;5068757;28;20079;-70
2021/01/10 09:40:17;;;;;;;78.97;26.63;;;;;;;-0.02;100.00;101264.78;5069887;28;20090;-70
2021/01/10 09:42:44;;;;;;;77.13;26.23;;;;;;;0.03;100.00;101262.00;5069000;28;20040;-70
2021/01/10 09:45:11;;;;;;;67.40;26.67;;;;;;;-0.02;100.00;101248.97;5068463;28;20025;-70
2021/01/10 09:47:38;;;;;;;71.10;24.73;;;;;;;0.07;100.00;101258.38;5075767;28;20028;-70
2021/01/10 09:50:15;;;;;;;74.07;25.10;;;;;;;0.04;100.00;101248.75;5088635;28;20062;-71
2021/01/10 09:52:47;;;;;;;70.60;25.02;;;;;;;0.04;100.00;101247.94;5089091;28;20085;-70
2021/01/10 09:55:13;;;;;;;75.03;25.27;;;;;;;-0.08;100.00;101230.69;5089953;28;20611;-70
2021/01/10 09:57:39;;;;;;;74.63;26.63;;;;;;;-0.01;100.00;101248.06;5088947;28;20119;-70
2021/01/10 10:00:08;;;;;;;68.93;24.67;;;;;;;0.00;100.00;101246.28;5081405;28;20020;-71
2021/01/10 10:02:35;;;;;;;58.03;25.15;;;;;;;-0.01;100.00;101236.63;5072159;28;20085;-70
2021/01/10 10:05:16;;;;;;;66.70;23.95;;;;;;;-0.10;100.00;101221.09;5072817;28;20029;-70
2021/01/10 10:07:46;;;;;;;70.57;24.70;;;;;;;-0.05;100.00;101237.66;5073212;28;20048;-70
2021/01/10 10:10:17;;;;;;;69.95;23.70;;;;;;;-0.05;100.00;101238.53;5073613;28;20021;-69
2021/01/10 10:12:56;;;;;;;65.95;24.73;;;;;;;-0.18;100.00;101216.06;5072841;28;20471;-70
2021/01/10 10:15:33;;;;;;;64.53;24.33;;;;;;;-0.17;100.00;101223.06;5072959;28;20028;-70
2021/01/10 10:18:00;;;;;;;63.65;24.85;;;;;;;-0.17;100.00;101217.78;5083524;28;20043;-70
2021/01/10 10:20:25;;;;;;;68.15;24.58;;;;;;;-0.21;100.00;101210.88;5091425;28;20024;-70
2021/01/10 10:22:51;;;;;;;69.13;27.13;;;;;;;-0.13;100.00;101224.69;5093903;28;20043;-70
2021/01/10 10:25:16;;;;;;;65.25;25.95;;;;;;;-0.27;100.00;101204.91;5093818;28;20097;-70
2021/01/10 10:27:59;;;;;;;71.32;26.35;;;;;;;-0.13;100.00;101227.31;5092709;28;20040;-70
2021/01/10 10:30:28;;;;;;;69.80;24.13;;;;;;;-0.10;100.00;101229.00;5092652;28;20027;-71
2021/01/10 10:32:54;;;;;;;59.38;24.33;;;;;;;-0.04;100.00;101234.09;5092143;28;20029;-71
2021/01/10 10:35:20;;;;;;;63.00;22.88;;;;;;;-0.08;100.00;101222.78;5093150;28;20376;-70
2021/01/10 10:37:47;;;;;;;59.75;23.67;;;;;;;-0.10;100.00;101229.88;5093375;28;20040;-70
2021/01/10 10:40:13;;;;;;;69.68;24.67;;;;;;;-0.12;100.00;101223.78;5093134;28;20113;-70
2021/01/10 10:42:39;;;;;;;68.18;25.65;;;;;;;-0.13;100.00;101223.81;5083866;28;20052;-70
2021/01/10 10:45:05;;;;;;;67.57;26.90;;;;;;;-0.28;100.00;101200.56;5081102;28;20024;-71
2021/01/10 10:47:31;;;;;;;76.15;28.17;;;;;;;-0.12;100.00;101231.69;5078083;28;20037;-70
2021/01/10 10:49:56;;;;;;;75.70;25.50;;;;;;;-0.38;100.00;101178.03;5082605;28;20075;-71
2021/01/10 10:52:22;;;;;;;75.53;28.10;;;;;;;-0.14;100.00;101230.88;5078310;28;20121;-70
2021/01/10 10:54:47;;;;;;;74.78;27.15;;;;;;;-0.22;100.00;101216.22;5091968;28;20408;-70
2021/01/10 10:57:13;;;;;;;71.03;25.15;;;;;;;-0.18;100.00;101221.34;5092819;28;20119;-70
2021/01/10 10:59:39;;;;;;;78.68;28.02;;;;;;;-0.25;100.00;101200.47;5090314;28;20422;-71
2021/01/10 11:02:09;;;;;;;69.47;26.65;;;;;;;-0.18;100.00;101217.84;5092909;28;20440;-70
2021/01/10 11:04:38;;;;;;;86.70;30.52;;;;;;;-0.18;100.00;101207.28;5092651;28;20085;-70
2021/01/10 11:07:03;;;;;;;77.57;29.73;;;;;;;-0.21;100.00;101199.47;5088839;28;20028;-70
2021/01/10 11:09:29;;;;;;;78.82;27.50;;;;;;;-0.19;100.00;101197.66;5091633;28;20028;-70
2021/01/10 11:11:54;;;;;;;76.13;28.00;;;;;;;-0.24;100.00;101178.47;5091473;28;20107;-70
2021/01/10 11:14:20;;;;;;;77.97;27.38;;;;;;;-0.38;100.00;101155.16;5090760;28;20048;-69